createdAt,value
2023-11-20T00:06:38.277Z,8.52
2023-11-20T00:26:38.266Z,8.72
2023-11-20T00:46:38.221Z,8.72
2023-11-20T01:06:38.152Z,8.35
2023-11-20T01:26:38.205Z,8.49
2023-11-20T01:46:38.173Z,8.64
2023-11-20T02:06:38.123Z,8.96
2023-11-20T02:26:38.193Z,9.07
2023-11-20T03:06:38.075Z,8.90
2023-11-20T03:26:38.141Z,8.75
2023-11-20T03:46:38.107Z,8.47
2023-11-20T04:06:38.076Z,8.30
2023-11-20T04:26:38.037Z,8.43
2023-11-20T04:46:38.091Z,8.57
2023-11-20T05:06:38.120Z,8.80
2023-11-20T05:26:38.044Z,8.75
2023-11-20T05:46:38.007Z,8.84
2023-11-20T06:06:37.996Z,8.93
2023-11-20T06:26:37.941Z,8.93
2023-11-20T06:46:38.002Z,9.04
2023-11-20T07:06:38.144Z,9.13
2023-11-20T07:26:37.947Z,9.36
2023-11-20T07:46:37.908Z,9.66
2023-11-20T08:06:37.894Z,9.76
2023-11-20T08:26:37.954Z,9.70
2023-11-20T08:46:37.911Z,9.53
2023-11-20T09:26:37.855Z,9.89
2023-11-20T09:46:37.808Z,9.95
2023-11-20T10:06:37.782Z,10.06
2023-11-20T10:26:37.840Z,10.00
2023-11-20T10:46:37.813Z,10.03
2023-11-20T11:06:37.875Z,10.45
2023-11-20T11:26:37.745Z,9.99
2023-11-20T11:46:37.709Z,9.85
2023-11-20T12:06:37.777Z,10.01
2023-11-20T12:26:37.746Z,10.18
2023-11-20T12:46:37.716Z,9.79
2023-11-20T13:06:37.684Z,9.49
2023-11-20T13:26:37.665Z,9.24
2023-11-20T13:46:37.674Z,11.75
2023-11-20T14:06:37.693Z,10.96
2023-11-20T14:26:37.801Z,10.90
2023-11-20T14:46:37.696Z,10.58
2023-11-20T15:06:37.643Z,10.12
2023-11-20T15:26:37.581Z,9.63
2023-11-20T15:46:37.535Z,9.21
2023-11-20T16:06:37.506Z,9.17
2023-11-20T16:46:37.544Z,8.83
2023-11-20T17:06:37.639Z,8.48
2023-11-20T17:26:37.524Z,8.16
2023-11-20T17:46:37.530Z,7.84
2023-11-20T18:06:37.427Z,7.44
2023-11-20T18:26:37.526Z,7.18
2023-11-20T18:46:37.561Z,7.41
2023-11-20T19:06:37.460Z,7.15
2023-11-20T19:26:37.540Z,6.92
2023-11-20T19:46:37.406Z,6.85
2023-11-20T20:06:37.535Z,6.89
2023-11-20T20:26:37.530Z,6.77
2023-11-20T20:46:37.385Z,6.74
2023-11-20T21:06:37.362Z,6.85
2023-11-20T21:26:37.334Z,7.61
2023-11-20T21:46:37.380Z,7.86
2023-11-20T22:06:37.360Z,7.81
2023-11-20T22:26:37.313Z,7.63
2023-11-20T22:46:37.287Z,7.47
2023-11-20T23:06:37.366Z,7.45
2023-11-20T23:26:37.308Z,7.40
2023-11-20T23:46:37.298Z,7.44
